Time;durP1;ratioP1;P1;durP2;ratioP2;P2;SDS_P1;SDS_P2;PMS_P1;PMS_P2;Temp;Humidity;BMP_temperature;BMP_pressure;BME280_temperature;BME280_humidity;BME280_pressure;Samples;Min_cycle;Max_cycle;Signal;HPM_P1;HPM_P2
2023/06/29 00:01:10;;;;;;;4.30;4.00;;;;;;;15.21;84.33;95043.16;5115071;28;20192;-68
2023/06/29 00:03:41;;;;;;;4.40;4.10;;;;;;;15.24;84.03;95040.41;5115221;28;20668;-68
2023/06/29 00:06:09;;;;;;;4.25;3.95;;;;;;;15.26;84.00;95049.16;5115296;28;20224;-68
2023/06/29 00:08:40;;;;;;;4.05;3.75;;;;;;;15.26;84.57;95056.72;5114616;28;20256;-68
2023/06/29 00:11:07;;;;;;;3.85;3.58;;;;;;;15.24;84.07;95056.28;5114606;28;20203;-68
2023/06/29 00:13:35;;;;;;;3.92;3.65;;;;;;;15.22;84.08;95051.13;5115541;28;20195;-68
2023/06/29 00:16:06;;;;;;;4.30;4.00;;;;;;;15.22;83.38;95040.00;5114499;28;20222;-67
2023/06/29 00:18:35;;;;;;;5.45;4.40;;;;;;;15.21;83.73;95046.72;5114948;28;20282;-67
2023/06/29 00:21:04;;;;;;;4.30;4.00;;;;;;;15.19;84.70;95045.53;5115518;28;20191;-67
2023/06/29 00:23:34;;;;;;;4.22;3.92;;;;;;;15.16;84.76;95045.09;5114419;28;20278;-67
2023/06/29 00:26:06;;;;;;;5.00;3.90;;;;;;;15.15;83.87;95039.94;5115409;28;20211;-68
2023/06/29 00:28:33;;;;;;;4.07;3.70;;;;;;;15.16;83.73;95035.97;5114491;28;20199;-68
2023/06/29 00:31:01;;;;;;;4.20;3.90;;;;;;;15.11;84.08;95020.47;5115369;28;20191;-67
2023/06/29 00:33:30;;;;;;;3.90;3.70;;;;;;;15.08;85.02;95020.44;5114499;28;20195;-68
2023/06/29 00:35:58;;;;;;;4.20;3.90;;;;;;;15.07;85.45;95014.09;5115128;28;20257;-68
2023/06/29 00:38:24;;;;;;;4.03;3.72;;;;;;;15.07;85.54;95024.38;5114661;28;20233;-67
2023/06/29 00:40:53;;;;;;;4.55;4.25;;;;;;;15.06;85.02;95029.13;5115291;28;20195;-67
2023/06/29 00:43:22;;;;;;;3.80;3.55;;;;;;;15.06;84.07;95025.56;5116674;28;20276;-67
2023/06/29 00:45:50;;;;;;;4.25;3.90;;;;;;;15.08;83.42;95031.53;5118047;28;20739;-67
2023/06/29 00:48:18;;;;;;;4.13;3.83;;;;;;;15.07;83.49;95033.53;5118572;28;20192;-67
2023/06/29 00:50:47;;;;;;;4.32;4.03;;;;;;;15.07;83.93;95038.25;5118721;28;20203;-67
2023/06/29 00:53:15;;;;;;;4.40;4.10;;;;;;;15.09;84.51;95038.69;5118761;28;20191;-67
2023/06/29 00:55:44;;;;;;;4.47;4.13;;;;;;;15.11;84.41;95039.13;5117909;28;20264;-67
2023/06/29 00:58:14;;;;;;;4.47;4.18;;;;;;;15.06;84.55;95042.22;5118351;28;20199;-69
2023/06/29 01:00:44;;;;;;;4.30;3.90;;;;;;;15.05;85.04;95040.63;5119550;28;20200;-67
2023/06/29 01:03:14;;;;;;;4.72;4.25;;;;;;;15.05;85.65;95035.88;5119080;28;20196;-67
2023/06/29 01:05:45;;;;;;;4.43;4.13;;;;;;;15.03;85.68;95027.13;5117802;28;20196;-67
2023/06/29 01:08:18;;;;;;;3.92;3.53;;;;;;;15.02;84.88;95039.41;5118733;28;20195;-67
2023/06/29 01:10:47;;;;;;;3.75;3.55;;;;;;;15.03;83.37;95038.25;5118715;28;20195;-67
2023/06/29 01:13:17;;;;;;;3.90;3.60;;;;;;;15.04;83.57;95041.81;5119110;28;20237;-67
2023/06/29 01:15:48;;;;;;;4.72;4.18;;;;;;;15.02;83.89;95044.16;5118546;28;20184;-67
2023/06/29 01:18:16;;;;;;;4.38;4.05;;;;;;;15.02;84.00;95042.19;5117967;28;20260;-67
2023/06/29 01:20:49;;;;;;;4.68;4.28;;;;;;;15.03;83.07;95031.88;5118494;28;20248;-67
2023/06/29 01:23:21;;;;;;;4.32;4.03;;;;;;;15.02;83.95;95038.63;5117492;28;20236;-67
2023/06/29 01:25:54;;;;;;;4.50;4.10;;;;;;;15.00;83.06;95041.00;5117512;28;20191;-67
2023/06/29 01:28:22;;;;;;;4.68;4.30;;;;;;;14.96;82.72;95045.69;5117461;28;20191;-67
2023/06/29 01:30:50;;;;;;;4.75;4.35;;;;;;;14.93;82.86;95053.63;5118307;28;20180;-67
2023/06/29 01:33:19;;;;;;;4.95;4.55;;;;;;;14.89;82.91;95046.44;5118025;28;20202;-67
2023/06/29 01:35:48;;;;;;;5.38;4.88;;;;;;;14.90;83.09;95039.69;5118209;28;20262;-67
2023/06/29 01:38:25;;;;;;;5.60;5.10;;;;;;;14.93;82.91;95045.28;5118682;28;20199;-67
2023/06/29 01:40:56;;;;;;;5.20;4.80;;;;;;;14.91;83.65;95044.84;5118159;28;20179;-67
2023/06/29 01:43:28;;;;;;;5.22;4.82;;;;;;;14.87;83.56;95040.47;5118236;28;20183;-67
2023/06/29 01:45:56;;;;;;;4.88;4.47;;;;;;;14.83;83.53;95036.84;5117597;28;20242;-67
2023/06/29 01:48:25;;;;;;;4.53;4.22;;;;;;;14.81;84.26;95041.97;5117237;28;20204;-68
2023/06/29 01:50:54;;;;;;;4.57;4.28;;;;;;;14.79;83.95;95039.59;5118040;28;20200;-67
2023/06/29 01:53:22;;;;;;;5.57;5.07;;;;;;;14.76;83.64;95031.22;5117952;28;20180;-67
2023/06/29 01:55:50;;;;;;;5.32;4.93;;;;;;;14.73;83.81;95040.31;5115973;28;20198;-67
2023/06/29 01:58:18;;;;;;;5.40;4.80;;;;;;;14.69;83.28;95029.97;5116877;28;20211;-67
2023/06/29 02:00:46;;;;;;;5.28;4.82;;;;;;;14.68;83.29;95033.91;5117829;28;20184;-67
2023/06/29 02:03:14;;;;;;;5.40;5.00;;;;;;;14.63;82.47;95039.00;5117727;28;20191;-67
2023/06/29 02:05:42;;;;;;;5.43;4.97;;;;;;;14.59;82.57;95038.16;5117698;28;20183;-67
2023/06/29 02:08:10;;;;;;;5.57;5.07;;;;;;;14.59;82.84;95044.50;5117662;28;20188;-67
2023/06/29 02:10:38;;;;;;;5.65;5.25;;;;;;;14.60;83.07;95048.91;5117264;28;20654;-67
2023/06/29 02:13:06;;;;;;;6.05;5.55;;;;;;;14.59;81.71;95046.50;5116667;28;20217;-67
2023/06/29 02:15:36;;;;;;;5.65;5.25;;;;;;;14.60;83.00;95043.34;5116678;28;20183;-67
2023/06/29 02:18:04;;;;;;;5.95;5.45;;;;;;;14.59;82.84;95041.75;5117842;28;20268;-67
2023/06/29 02:20:31;;;;;;;5.82;5.40;;;;;;;14.59;81.92;95049.28;5117053;28;20187;-67
2023/06/29 02:23:00;;;;;;;5.35;4.95;;;;;;;14.55;81.49;95040.91;5116170;28;20558;-67
2023/06/29 02:25:28;;;;;;;5.90;5.30;;;;;;;14.56;81.24;95042.53;5117203;28;20184;-67
2023/06/29 02:27:55;;;;;;;6.05;5.57;;;;;;;14.57;81.20;95032.22;5117072;28;20184;-67
2023/06/29 02:30:26;;;;;;;6.07;5.57;;;;;;;14.52;81.25;95041.66;5117147;28;20180;-66
2023/06/29 02:32:57;;;;;;;5.70;5.10;;;;;;;14.51;81.06;95045.63;5116754;28;20200;-66
2023/06/29 02:35:25;;;;;;;6.20;5.70;;;;;;;14.49;80.83;95038.81;5116197;28;20199;-67
2023/06/29 02:37:51;;;;;;;6.10;5.60;;;;;;;14.50;81.50;95043.22;5115945;28;20246;-67
2023/06/29 02:40:18;;;;;;;5.30;4.90;;;;;;;14.46;81.12;95029.28;5115982;28;20198;-67
2023/06/29 02:42:46;;;;;;;5.57;5.18;;;;;;;14.45;80.61;95034.03;5116360;28;20221;-67
2023/06/29 02:45:14;;;;;;;5.22;4.78;;;;;;;14.45;80.31;95044.31;5115967;28;20235;-67
2023/06/29 02:47:42;;;;;;;5.43;5.03;;;;;;;14.45;80.96;95041.53;5116743;28;20188;-67
2023/06/29 02:50:15;;;;;;;5.55;5.13;;;;;;;14.44;81.01;95037.97;5115960;28;20195;-67
2023/06/29 02:52:43;;;;;;;5.72;5.07;;;;;;;14.48;80.29;95043.56;5115796;28;20203;-67
2023/06/29 02:55:11;;;;;;;5.80;5.40;;;;;;;14.43;80.60;95049.47;5115642;28;20248;-67
2023/06/29 02:57:39;;;;;;;6.20;5.70;;;;;;;14.43;81.20;95049.47;5116453;28;20219;-67
2023/06/29 03:00:09;;;;;;;5.40;5.00;;;;;;;14.44;80.00;95054.63;5116305;28;20191;-67
2023/06/29 03:02:37;;;;;;;5.95;5.45;;;;;;;14.43;79.70;95050.25;5115989;28;20196;-68
2023/06/29 03:05:06;;;;;;;5.85;5.38;;;;;;;14.41;79.38;95054.56;5116482;28;20249;-68
2023/06/29 03:07:36;;;;;;;6.53;5.70;;;;;;;14.37;79.33;95062.06;5116009;28;20556;-68
2023/06/29 03:10:06;;;;;;;6.00;5.50;;;;;;;14.38;79.24;95066.47;5116356;28;20188;-68
2023/06/29 03:12:36;;;;;;;5.43;4.93;;;;;;;14.37;78.80;95065.63;5116304;28;20195;-68
2023/06/29 03:15:05;;;;;;;6.75;6.15;;;;;;;14.38;78.48;95072.00;5115497;28;20611;-68
2023/06/29 03:17:33;;;;;;;6.28;5.78;;;;;;;14.39;78.54;95054.16;5115911;28;20569;-68
2023/06/29 03:20:01;;;;;;;6.40;5.90;;;;;;;14.41;78.06;95068.44;5115190;28;20208;-66
2023/06/29 03:22:29;;;;;;;5.82;5.32;;;;;;;14.41;77.98;95071.22;5115971;28;20200;-66
2023/06/29 03:24:58;;;;;;;6.72;6.20;;;;;;;14.40;78.12;95053.78;5116295;28;20260;-66
2023/06/29 03:27:26;;;;;;;6.95;6.45;;;;;;;14.39;78.52;95062.50;5116132;28;20184;-66
2023/06/29 03:29:54;;;;;;;7.63;6.82;;;;;;;14.40;79.00;95069.63;5115903;28;20216;-66
2023/06/29 03:32:22;;;;;;;6.60;6.00;;;;;;;14.40;78.69;95066.84;5116252;28;20180;-66
2023/06/29 03:34:50;;;;;;;7.45;6.90;;;;;;;14.37;79.32;95070.38;5115839;28;20623;-66
2023/06/29 03:37:17;;;;;;;8.13;7.18;;;;;;;14.34;79.03;95071.97;5115882;28;20203;-66
2023/06/29 03:39:46;;;;;;;6.82;6.32;;;;;;;14.34;78.93;95066.41;5115856;28;20192;-66
2023/06/29 03:42:18;;;;;;;6.57;6.07;;;;;;;14.37;78.71;95073.16;5115123;28;20187;-66
2023/06/29 03:44:46;;;;;;;7.47;6.78;;;;;;;14.40;78.25;95069.63;5115642;28;20199;-68
2023/06/29 03:47:14;;;;;;;7.90;7.20;;;;;;;14.41;79.58;95074.78;5115892;28;20214;-66
2023/06/29 03:49:42;;;;;;;7.35;6.70;;;;;;;14.37;80.08;95068.41;5115175;28;20187;-66
2023/06/29 03:52:11;;;;;;;7.93;7.22;;;;;;;14.38;79.30;95069.22;5115746;28;20248;-66
2023/06/29 03:54:39;;;;;;;8.07;7.38;;;;;;;14.42;78.92;95076.41;5115116;28;20214;-66
2023/06/29 03:57:07;;;;;;;7.18;6.57;;;;;;;14.43;78.47;95080.78;5115731;28;20207;-66
2023/06/29 03:59:40;;;;;;;7.28;6.57;;;;;;;14.41;78.96;95077.56;5115348;28;20188;-66
2023/06/29 04:02:09;;;;;;;7.63;7.03;;;;;;;14.39;79.20;95074.38;5115327;28;20204;-68
2023/06/29 04:04:37;;;;;;;8.30;7.50;;;;;;;14.41;79.28;95079.53;5115611;28;20190;-65
2023/06/29 04:07:05;;;;;;;8.00;7.25;;;;;;;14.41;80.13;95082.31;5115159;28;20195;-65
2023/06/29 04:09:33;;;;;;;7.50;6.80;;;;;;;14.41;80.84;95077.56;5115176;28;20566;-65
2023/06/29 04:12:01;;;;;;;8.13;7.43;;;;;;;14.42;81.28;95075.63;5114651;28;20203;-65
2023/06/29 04:14:29;;;;;;;8.38;7.65;;;;;;;14.42;81.42;95072.84;5114918;28;20196;-65
2023/06/29 04:16:58;;;;;;;8.27;7.38;;;;;;;14.44;80.41;95078.78;5114405;28;20575;-65
2023/06/29 04:19:26;;;;;;;8.73;7.85;;;;;;;14.48;80.61;95085.19;5118975;28;20229;-65
2023/06/29 04:21:54;;;;;;;7.85;7.25;;;;;;;14.47;80.30;95083.59;5119647;28;20253;-65
2023/06/29 04:24:22;;;;;;;8.20;7.40;;;;;;;14.49;80.42;95078.47;5119771;28;20183;-65
2023/06/29 04:26:49;;;;;;;9.05;8.25;;;;;;;14.51;80.37;95080.91;5119148;28;20646;-65
2023/06/29 04:29:17;;;;;;;8.95;8.15;;;;;;;14.53;79.73;95079.34;5118621;28;20203;-65
2023/06/29 04:31:45;;;;;;;8.77;7.97;;;;;;;14.55;79.39;95079.75;5119622;28;20257;-65
2023/06/29 04:34:17;;;;;;;8.40;7.60;;;;;;;14.55;78.78;95084.50;5119360;28;20542;-65
2023/06/29 04:36:46;;;;;;;8.95;8.15;;;;;;;14.57;78.66;95076.63;5118613;28;20192;-65
2023/06/29 04:39:17;;;;;;;8.10;7.40;;;;;;;14.60;78.36;95076.66;5119035;28;20215;-65
2023/06/29 04:41:46;;;;;;;9.18;8.20;;;;;;;14.64;78.95;95076.69;5118431;28;20245;-65
2023/06/29 04:44:13;;;;;;;8.98;8.25;;;;;;;14.64;78.14;95076.69;5119055;28;20731;-65
2023/06/29 04:46:41;;;;;;;8.63;7.93;;;;;;;14.66;78.35;95082.66;5117769;28;20243;-66
2023/06/29 04:49:09;;;;;;;8.68;7.88;;;;;;;14.62;78.03;95079.03;5118373;28;20188;-65
2023/06/29 04:51:39;;;;;;;8.63;7.85;;;;;;;14.65;78.87;95089.41;5118249;28;20215;-65
2023/06/29 04:54:07;;;;;;;9.25;8.35;;;;;;;14.62;77.83;95077.06;5119160;28;20211;-65
2023/06/29 04:56:35;;;;;;;9.25;8.45;;;;;;;14.65;78.34;95081.88;5119037;28;20206;-65
2023/06/29 04:59:05;;;;;;;8.65;7.75;;;;;;;14.72;77.96;95089.47;5118133;28;20204;-65
2023/06/29 05:01:36;;;;;;;9.15;8.25;;;;;;;14.73;77.51;95088.28;5118817;28;20183;-65
2023/06/29 05:04:05;;;;;;;9.05;8.18;;;;;;;14.74;77.70;95092.66;5118862;28;20184;-65
2023/06/29 05:06:31;;;;;;;8.75;7.95;;;;;;;14.74;77.41;95095.44;5118083;28;20203;-65
2023/06/29 05:09:01;;;;;;;8.68;7.97;;;;;;;14.75;77.16;95097.06;5117978;28;20203;-65
2023/06/29 05:11:29;;;;;;;9.15;8.23;;;;;;;14.78;77.06;95101.03;5118568;28;20195;-65
2023/06/29 05:13:57;;;;;;;8.98;8.27;;;;;;;14.82;77.38;95102.69;5118504;28;20184;-65
2023/06/29 05:16:26;;;;;;;9.10;8.20;;;;;;;14.83;76.80;95109.84;5117416;28;20208;-66
2023/06/29 05:18:56;;;;;;;9.05;8.25;;;;;;;14.87;76.66;95109.88;5118427;28;20208;-65
2023/06/29 05:21:23;;;;;;;8.68;7.70;;;;;;;14.90;76.68;95111.91;5118414;28;20287;-65
2023/06/29 05:23:51;;;;;;;8.93;8.23;;;;;;;14.95;76.63;95106.00;5117409;28;20256;-65
2023/06/29 05:26:20;;;;;;;9.40;8.60;;;;;;;14.95;77.29;95116.31;5118466;28;20200;-65
2023/06/29 05:28:48;;;;;;;9.73;8.93;;;;;;;14.96;76.83;95115.94;5117797;28;20181;-68
2023/06/29 05:31:17;;;;;;;9.35;8.55;;;;;;;14.98;76.81;95119.13;5117211;28;20584;-65
2023/06/29 05:33:45;;;;;;;9.57;8.77;;;;;;;14.99;76.22;95112.38;5116911;28;20195;-65
2023/06/29 05:36:13;;;;;;;9.75;8.95;;;;;;;15.03;76.79;95112.41;5118231;28;20195;-65
2023/06/29 05:38:41;;;;;;;9.45;8.55;;;;;;;15.05;75.95;95115.63;5116942;28;20207;-65
2023/06/29 05:41:09;;;;;;;10.00;9.02;;;;;;;15.05;77.25;95118.41;5118102;28;20245;-65
2023/06/29 05:43:38;;;;;;;9.10;8.27;;;;;;;15.08;77.03;95109.31;5117945;28;20195;-65
2023/06/29 05:46:07;;;;;;;8.10;7.40;;;;;;;15.06;75.74;95109.69;5116818;28;20227;-65
2023/06/29 05:48:37;;;;;;;8.77;7.97;;;;;;;15.09;76.85;95114.47;5117366;28;20191;-65
2023/06/29 05:51:05;;;;;;;8.93;8.13;;;;;;;15.17;76.90;95110.59;5116706;28;20187;-65
2023/06/29 05:53:33;;;;;;;8.85;8.13;;;;;;;15.23;77.12;95115.81;5117509;28;20184;-65
2023/06/29 05:56:01;;;;;;;8.27;7.65;;;;;;;15.25;75.79;95116.22;5117885;28;20187;-65
2023/06/29 05:58:29;;;;;;;8.80;7.95;;;;;;;15.27;75.69;95119.44;5117409;28;20663;-65
2023/06/29 06:00:57;;;;;;;8.50;7.80;;;;;;;15.29;75.99;95117.06;5117425;28;20604;-65
2023/06/29 06:03:25;;;;;;;8.45;7.75;;;;;;;15.32;76.29;95122.66;5116983;28;20199;-65
2023/06/29 06:05:53;;;;;;;8.13;7.43;;;;;;;15.34;76.08;95125.06;5117575;28;20176;-65
2023/06/29 06:08:21;;;;;;;8.80;8.00;;;;;;;15.33;76.16;95120.69;5117589;28;20244;-66
2023/06/29 06:10:49;;;;;;;8.70;7.88;;;;;;;15.45;77.33;95120.38;5117309;28;20206;-65
2023/06/29 06:13:17;;;;;;;7.97;7.28;;;;;;;15.48;75.41;95127.19;5117273;28;20192;-65
2023/06/29 06:15:45;;;;;;;8.23;7.53;;;;;;;15.53;75.53;95126.81;5116492;28;20196;-65
2023/06/29 06:18:14;;;;;;;8.10;7.38;;;;;;;15.54;75.01;95123.66;5117319;28;20207;-66
2023/06/29 06:20:42;;;;;;;8.50;7.70;;;;;;;15.53;74.75;95121.25;5117362;28;20195;-65
2023/06/29 06:23:10;;;;;;;7.78;7.07;;;;;;;15.49;74.73;95115.66;5116731;28;20257;-65
2023/06/29 06:25:36;;;;;;;8.93;8.13;;;;;;;15.47;74.92;95120.81;5117101;28;20176;-65
2023/06/29 06:28:05;;;;;;;7.90;7.10;;;;;;;15.46;74.46;95116.44;5116708;28;20192;-65
2023/06/29 06:30:33;;;;;;;7.47;6.88;;;;;;;15.48;74.67;95116.06;5117169;28;20198;-66
2023/06/29 06:33:01;;;;;;;8.63;7.88;;;;;;;15.53;74.75;95121.25;5117084;28;20187;-65
2023/06/29 06:35:31;;;;;;;8.20;7.38;;;;;;;15.56;74.15;95129.63;5117395;28;20233;-66
2023/06/29 06:37:59;;;;;;;7.82;7.03;;;;;;;15.58;74.11;95116.16;5116678;28;20227;-65
2023/06/29 06:40:27;;;;;;;7.97;7.18;;;;;;;15.59;73.44;95117.75;5115813;28;20206;-66
2023/06/29 06:42:55;;;;;;;7.72;6.80;;;;;;;15.62;74.44;95119.75;5116970;28;20199;-68
2023/06/29 06:45:23;;;;;;;8.05;7.25;;;;;;;15.63;73.69;95120.56;5116377;28;20566;-66
2023/06/29 06:47:50;;;;;;;7.72;7.03;;;;;;;15.67;73.54;95117.84;5116723;28;20200;-65
2023/06/29 06:50:17;;;;;;;7.75;7.05;;;;;;;15.64;73.02;95113.81;5115899;28;20195;-66
2023/06/29 06:52:48;;;;;;;7.88;7.18;;;;;;;15.64;74.29;95122.94;5116056;28;20188;-65
2023/06/29 06:55:18;;;;;;;7.65;7.05;;;;;;;15.63;74.40;95115.78;5116771;28;20191;-65
2023/06/29 06:57:47;;;;;;;7.25;6.65;;;;;;;15.67;74.39;95117.84;5115650;28;20216;-65
2023/06/29 07:00:15;;;;;;;7.10;6.45;;;;;;;15.69;73.41;95113.50;5115574;28;20196;-65
2023/06/29 07:02:42;;;;;;;7.68;6.28;;;;;;;15.75;73.11;95111.94;5115630;28;20192;-65
2023/06/29 07:05:10;;;;;;;7.00;6.40;;;;;;;15.81;72.98;95117.94;5116665;28;20192;-65
2023/06/29 07:07:37;;;;;;;7.07;6.47;;;;;;;15.83;73.37;95113.59;5115972;28;20294;-65
2023/06/29 07:10:07;;;;;;;7.32;6.72;;;;;;;15.87;73.71;95110.84;5116446;28;20200;-66
2023/06/29 07:12:34;;;;;;;7.25;6.65;;;;;;;15.91;74.02;95117.25;5116346;28;20199;-65
2023/06/29 07:15:03;;;;;;;7.55;6.88;;;;;;;15.91;72.89;95117.25;5115569;28;20188;-65
2023/06/29 07:17:31;;;;;;;7.47;6.88;;;;;;;15.94;72.72;95110.09;5115202;28;20203;-65
2023/06/29 07:19:59;;;;;;;7.88;7.07;;;;;;;16.02;73.18;95109.78;5116156;28;20208;-65
2023/06/29 07:22:27;;;;;;;7.57;6.88;;;;;;;16.10;73.85;95110.59;5115910;28;20225;-65
2023/06/29 07:24:58;;;;;;;7.53;6.82;;;;;;;16.15;72.06;95115.00;5115233;28;20206;-65
2023/06/29 07:27:28;;;;;;;5.85;5.43;;;;;;;16.15;71.41;95115.00;5115272;28;20202;-65
2023/06/29 07:29:56;;;;;;;6.00;5.43;;;;;;;16.13;70.46;95121.75;5115121;28;20225;-65
2023/06/29 07:32:27;;;;;;;5.78;5.22;;;;;;;16.13;71.36;95118.19;5115080;28;20191;-65
2023/06/29 07:34:55;;;;;;;5.82;5.30;;;;;;;16.17;69.74;95112.66;5116000;28;20199;-65
2023/06/29 07:37:23;;;;;;;5.93;5.28;;;;;;;16.18;69.25;95111.44;5115011;28;20202;-65
2023/06/29 07:39:51;;;;;;;5.93;5.43;;;;;;;16.19;70.24;95108.28;5114899;28;20311;-65
2023/06/29 07:42:19;;;;;;;6.28;4.88;;;;;;;16.22;70.74;95109.47;5115293;28;20187;-65
2023/06/29 07:44:48;;;;;;;6.13;5.53;;;;;;;16.26;70.75;95111.09;5115566;28;20191;-66
2023/06/29 07:47:16;;;;;;;5.40;4.68;;;;;;;16.27;69.29;95096.00;5114853;28;20199;-65
2023/06/29 07:49:44;;;;;;;5.10;4.68;;;;;;;16.35;70.81;95096.84;5114751;28;20188;-65
2023/06/29 07:52:12;;;;;;;5.60;5.10;;;;;;;16.46;71.81;95099.69;5114838;28;20188;-66
2023/06/29 07:54:40;;;;;;;5.53;4.90;;;;;;;16.55;71.39;95103.69;5114710;28;20192;-65
2023/06/29 07:57:08;;;;;;;6.30;5.13;;;;;;;16.61;70.36;95102.13;5115724;28;20180;-65
2023/06/29 07:59:38;;;;;;;5.78;5.00;;;;;;;16.64;69.19;95106.13;5115281;28;20574;-65
2023/06/29 08:02:08;;;;;;;5.53;5.10;;;;;;;16.70;68.80;95098.19;5115429;28;20188;-65
2023/06/29 08:04:38;;;;;;;5.85;5.35;;;;;;;16.74;70.30;95101.81;5115782;28;20249;-66
2023/06/29 08:07:07;;;;;;;5.40;5.00;;;;;;;16.73;68.56;95100.19;5097627;28;20200;-65
2023/06/29 08:09:34;;;;;;;5.82;5.13;;;;;;;16.74;68.96;95097.06;5115355;28;20241;-65
2023/06/29 08:12:02;;;;;;;5.88;5.35;;;;;;;16.83;69.23;95103.06;5114721;28;20550;-65
2023/06/29 08:14:32;;;;;;;5.50;4.97;;;;;;;16.88;70.28;95107.44;5114603;28;20200;-65
2023/06/29 08:17:00;;;;;;;5.20;4.80;;;;;;;16.90;69.75;95105.06;5115390;28;20615;-65
2023/06/29 08:19:29;;;;;;;5.07;4.78;;;;;;;16.84;67.66;95095.50;5115230;28;20211;-65
2023/06/29 08:21:57;;;;;;;5.20;4.80;;;;;;;16.89;68.59;95102.69;5114575;28;20196;-65
2023/06/29 08:24:28;;;;;;;5.05;4.57;;;;;;;16.95;68.44;95099.09;5115457;28;20191;-66
2023/06/29 08:26:56;;;;;;;4.55;4.15;;;;;;;16.97;67.30;95096.75;5115192;28;20516;-65
2023/06/29 08:29:24;;;;;;;4.45;4.15;;;;;;;16.99;67.53;95105.50;5114379;28;20662;-66
2023/06/29 08:31:51;;;;;;;4.47;4.10;;;;;;;17.01;68.37;95094.75;5114300;28;20207;-66
2023/06/29 08:34:20;;;;;;;5.35;4.30;;;;;;;16.99;65.90;95096.34;5114403;28;20204;-66
2023/06/29 08:36:53;;;;;;;4.43;4.03;;;;;;;17.04;66.89;95084.81;5114177;28;20202;-66
2023/06/29 08:39:20;;;;;;;5.43;3.92;;;;;;;17.17;67.81;95090.81;5115259;28;20208;-66
2023/06/29 08:41:48;;;;;;;4.22;3.92;;;;;;;17.27;66.72;95096.41;5115259;28;20184;-66
2023/06/29 08:44:15;;;;;;;5.70;5.20;;;;;;;17.39;66.31;95089.66;5115069;28;20620;-66
2023/06/29 08:46:44;;;;;;;8.40;7.50;;;;;;;17.52;69.14;95095.66;5113698;28;20235;-66
2023/06/29 08:49:10;;;;;;;7.25;6.72;;;;;;;17.61;67.62;95084.09;5114495;28;20215;-65
2023/06/29 08:51:38;;;;;;;5.75;5.25;;;;;;;17.65;66.80;95091.28;5115047;28;20191;-66
2023/06/29 08:54:08;;;;;;;4.25;3.83;;;;;;;17.64;66.23;95091.66;5115088;28;20226;-66
2023/06/29 08:56:39;;;;;;;4.93;4.53;;;;;;;17.71;65.68;95086.88;5114823;28;20508;-65
2023/06/29 08:59:07;;;;;;;4.65;4.25;;;;;;;17.83;66.09;95084.91;5114766;28;20204;-66
2023/06/29 09:01:35;;;;;;;5.60;5.20;;;;;;;17.95;65.84;95079.72;5114192;28;20619;-66
2023/06/29 09:04:03;;;;;;;5.20;4.70;;;;;;;18.06;67.63;95076.94;5115917;28;20187;-66
2023/06/29 09:06:32;;;;;;;5.35;4.88;;;;;;;18.23;67.36;95083.69;5118571;28;20598;-66
2023/06/29 09:09:01;;;;;;;5.00;4.60;;;;;;;18.34;66.53;95069.69;5117765;28;20499;-65
2023/06/29 09:11:35;;;;;;;4.07;3.78;;;;;;;18.47;65.78;95079.22;5118719;28;20275;-65
2023/06/29 09:14:06;;;;;;;4.00;3.70;;;;;;;18.55;63.59;95069.63;5117975;28;20195;-66
2023/06/29 09:16:35;;;;;;;4.15;3.75;;;;;;;18.60;62.05;95074.00;5118331;28;20570;-66
2023/06/29 09:19:06;;;;;;;4.43;4.13;;;;;;;18.66;61.71;95067.56;5117682;28;20216;-66
2023/06/29 09:21:35;;;;;;;4.07;3.65;;;;;;;18.79;63.85;95067.97;5118201;28;20489;-65
2023/06/29 09:24:04;;;;;;;3.85;3.42;;;;;;;18.92;63.27;95062.72;5117826;28;20204;-65
2023/06/29 09:26:34;;;;;;;4.10;3.78;;;;;;;18.94;64.61;95063.88;5117667;28;20214;-66
2023/06/29 09:29:06;;;;;;;4.30;4.00;;;;;;;18.93;63.13;95065.09;5118371;28;20188;-66
2023/06/29 09:31:35;;;;;;;3.60;3.30;;;;;;;18.98;59.75;95055.50;5117487;28;20188;-65
2023/06/29 09:34:21;;;;;;;4.05;3.60;;;;;;;19.13;60.82;95056.19;5117418;28;20207;-66
2023/06/29 09:36:49;;;;;;;3.70;3.38;;;;;;;19.22;60.90;95053.75;5118282;28;20184;-66
2023/06/29 09:39:21;;;;;;;3.92;3.58;;;;;;;19.36;62.86;95044.50;5117020;28;20212;-66
2023/06/29 09:41:51;;;;;;;4.57;3.55;;;;;;;19.56;63.35;95050.31;5117230;28;20196;-66
2023/06/29 09:44:23;;;;;;;3.70;3.40;;;;;;;19.61;57.29;95053.47;5118453;28;20191;-66
2023/06/29 09:46:52;;;;;;;3.47;3.17;;;;;;;19.74;60.75;95045.41;5118119;28;20243;-66
2023/06/29 09:49:21;;;;;;;3.72;3.42;;;;;;;19.88;60.93;95048.06;5117791;28;20176;-66
2023/06/29 09:51:49;;;;;;;3.60;3.30;;;;;;;20.00;59.22;95048.78;5116953;28;20199;-66
2023/06/29 09:54:16;;;;;;;3.28;3.08;;;;;;;20.12;59.56;95053.88;5117373;28;20627;-66
2023/06/29 09:56:44;;;;;;;3.65;3.10;;;;;;;20.22;56.77;95057.75;5117278;28;20203;-66
2023/06/29 09:59:13;;;;;;;3.58;3.28;;;;;;;20.18;56.28;95044.56;5117403;28;20233;-66
2023/06/29 10:01:42;;;;;;;3.33;3.00;;;;;;;20.25;57.21;95051.31;5117844;28;20199;-66
2023/06/29 10:04:10;;;;;;;3.58;3.25;;;;;;;20.32;57.90;95049.25;5117386;28;20620;-66
2023/06/29 10:06:43;;;;;;;3.45;3.15;;;;;;;20.38;56.78;95047.59;5117374;28;20187;-66
2023/06/29 10:09:15;;;;;;;2.88;2.60;;;;;;;20.50;56.87;95045.47;5117739;28;20199;-65
2023/06/29 10:11:43;;;;;;;3.30;2.85;;;;;;;20.54;52.48;95044.22;5116575;28;20207;-65
2023/06/29 10:14:14;;;;;;;2.97;2.78;;;;;;;20.47;51.20;95032.28;5116846;28;20649;-65
2023/06/29 10:16:45;;;;;;;3.38;3.08;;;;;;;20.59;58.01;95034.59;5116664;28;20204;-66
2023/06/29 10:19:16;;;;;;;3.72;2.47;;;;;;;20.71;53.32;95031.22;5117304;28;20635;-66
2023/06/29 10:21:45;;;;;;;3.00;2.78;;;;;;;20.80;54.48;95020.28;5117309;28;20202;-66
2023/06/29 10:24:15;;;;;;;3.25;2.95;;;;;;;20.83;54.61;95021.44;5116467;28;20592;-66
2023/06/29 10:26:43;;;;;;;2.83;2.50;;;;;;;20.82;56.32;95025.47;5116581;28;20199;-66
2023/06/29 10:29:11;;;;;;;3.08;2.78;;;;;;;20.96;55.84;95016.88;5116149;28;20202;-66
2023/06/29 10:31:43;;;;;;;3.25;2.95;;;;;;;21.10;53.06;95015.88;5117150;28;20180;-66
2023/06/29 10:34:10;;;;;;;3.08;2.88;;;;;;;21.06;53.48;95017.94;5117013;28;20252;-65
2023/06/29 10:36:48;;;;;;;2.80;2.60;;;;;;;20.89;52.71;95009.34;5115944;28;20203;-65
2023/06/29 10:39:41;;;;;;;2.08;1.98;;;;;;;21.00;51.42;95006.41;5116946;28;20223;-66
2023/06/29 10:42:14;;;;;;;3.10;2.90;;;;;;;20.89;51.17;95016.97;5116110;28;20623;-66
2023/06/29 10:44:47;;;;;;;3.95;3.55;;;;;;;20.90;52.81;94996.91;5116293;28;20291;-66
2023/06/29 10:47:36;;;;;;;4.10;3.80;;;;;;;21.08;53.97;95004.28;5116008;28;20227;-65
2023/06/29 10:50:24;;;;;;;4.40;4.00;;;;;;;21.24;53.00;95003.66;5115661;28;20577;-66
2023/06/29 10:52:52;;;;;;;3.55;3.25;;;;;;;21.39;53.70;95002.25;5116473;28;20187;-65
2023/06/29 10:55:22;;;;;;;3.50;3.05;;;;;;;21.50;53.20;95002.88;5115758;28;20199;-66
2023/06/29 10:57:55;;;;;;;3.50;3.20;;;;;;;21.59;52.25;95002.34;5116777;28;20184;-65
2023/06/29 11:00:25;;;;;;;3.40;3.10;;;;;;;21.63;51.73;95001.03;5098547;28;20225;-65
2023/06/29 11:02:55;;;;;;;4.10;3.45;;;;;;;21.73;50.82;95004.91;5116838;28;20184;-65
2023/06/29 11:05:23;;;;;;;3.50;3.10;;;;;;;21.82;50.91;95001.53;5115889;28;20200;-65
2023/06/29 11:07:53;;;;;;;4.00;3.53;;;;;;;21.88;50.83;94997.03;5116619;28;20184;-66
2023/06/29 11:10:22;;;;;;;2.75;2.55;;;;;;;21.94;50.34;95003.75;5116329;28;20176;-65
2023/06/29 11:12:51;;;;;;;2.60;2.40;;;;;;;21.93;48.38;94998.53;5116494;28;20207;-65
2023/06/29 11:15:22;;;;;;;2.97;2.70;;;;;;;21.95;48.82;94984.88;5115507;28;20290;-65
2023/06/29 11:17:51;;;;;;;3.00;2.80;;;;;;;21.95;47.80;94988.47;5115525;28;20256;-65
2023/06/29 11:20:28;;;;;;;3.17;2.88;;;;;;;22.01;49.29;94992.38;5116387;28;20541;-65
2023/06/29 11:22:57;;;;;;;3.97;3.10;;;;;;;22.05;48.55;94992.31;5115499;28;20199;-65
2023/06/29 11:25:27;;;;;;;3.13;2.92;;;;;;;22.08;48.22;94994.28;5115443;28;20180;-66
2023/06/29 11:27:55;;;;;;;3.42;3.17;;;;;;;22.17;48.20;94993.72;5115111;28;20248;-66
2023/06/29 11:30:24;;;;;;;3.47;2.83;;;;;;;22.30;50.54;94980.66;5115122;28;20200;-66
2023/06/29 11:32:53;;;;;;;2.85;2.65;;;;;;;22.43;49.09;94989.22;5115282;28;20203;-65
2023/06/29 11:35:23;;;;;;;3.13;2.83;;;;;;;22.32;47.46;94978.19;5115018;28;20287;-65
2023/06/29 11:37:51;;;;;;;3.20;3.00;;;;;;;22.36;47.90;94976.09;5116032;28;20272;-66
2023/06/29 11:40:23;;;;;;;3.10;2.90;;;;;;;22.41;48.06;94978.41;5115536;28;20245;-66
2023/06/29 11:42:53;;;;;;;3.35;2.83;;;;;;;22.27;47.43;94971.06;5115491;28;20207;-66